<?xml version="1.0" encoding="UTF-8" standalone="no" ?>
<gpx xmlns="http://www.topografix.com/GPX/1/1" xmlns:xsi="http://www.w3.org/2001/XMLSchema-instance" xsi:schemaLocation="http://www.topografix.com/GPX/1/1 http://www.topografix.com/GPX/1/1/gpx.xsd" version="1.1" creator="VisuGPX - https://www.visugpx.com">
  <metadata>
    <name>DT 01 : Séverac</name>
  </metadata>
  <trk>
    <name><![CDATA[Séverac l'église pierre planté sur TraceDeTrail.fr]]></name>
    <trkseg>
      <trkpt lat="44.36199" lon="2.84869">
        <ele>654</ele>
        <time>2000-01-01T02:33:00.000Z</time>
      </trkpt>
      <trkpt lat="44.36199" lon="2.84869">
        <ele>657</ele>
        <time>2000-01-01T02:33:10.000Z</time>
      </trkpt>
      <trkpt lat="44.36199" lon="2.84873">
        <ele>656.5</ele>
        <time>2000-01-01T02:33:20.000Z</time>
      </trkpt>
      <trkpt lat="44.36196" lon="2.84873">
        <ele>656.5</ele>
        <time>2000-01-01T02:33:30.000Z</time>
      </trkpt>
      <trkpt lat="44.36177" lon="2.84871">
        <ele>655</ele>
        <time>2000-01-01T02:33:40.000Z</time>
      </trkpt>
      <trkpt lat="44.36156" lon="2.84868">
        <ele>657</ele>
        <time>2000-01-01T02:33:50.000Z</time>
      </trkpt>
      <trkpt lat="44.36129" lon="2.84862">
        <ele>659</ele>
        <time>2000-01-01T02:34:00.000Z</time>
      </trkpt>
      <trkpt lat="44.36109" lon="2.8486">
        <ele>660</ele>
        <time>2000-01-01T02:34:10.000Z</time>
      </trkpt>
      <trkpt lat="44.36093" lon="2.84858">
        <ele>660.9</ele>
        <time>2000-01-01T02:34:20.000Z</time>
      </trkpt>
      <trkpt lat="44.36089" lon="2.84856">
        <ele>661</ele>
        <time>2000-01-01T02:34:30.000Z</time>
      </trkpt>
      <trkpt lat="44.36083" lon="2.84854">
        <ele>664.4</ele>
        <time>2000-01-01T02:34:40.000Z</time>
      </trkpt>
      <trkpt lat="44.36069" lon="2.84847">
        <ele>662</ele>
        <time>2000-01-01T02:34:50.000Z</time>
      </trkpt>
      <trkpt lat="44.36059" lon="2.84839">
        <ele>665.3</ele>
        <time>2000-01-01T02:35:00.000Z</time>
      </trkpt>
      <trkpt lat="44.36049" lon="2.84828">
        <ele>664</ele>
        <time>2000-01-01T02:35:10.000Z</time>
      </trkpt>
      <trkpt lat="44.36035" lon="2.8481">
        <ele>667</ele>
        <time>2000-01-01T02:35:20.000Z</time>
      </trkpt>
      <trkpt lat="44.36028" lon="2.848">
        <ele>667</ele>
        <time>2000-01-01T02:35:30.000Z</time>
      </trkpt>
      <trkpt lat="44.36027" lon="2.84799">
        <ele>667.2</ele>
        <time>2000-01-01T02:35:40.000Z</time>
      </trkpt>
      <trkpt lat="44.36022" lon="2.84797">
        <ele>667.4</ele>
        <time>2000-01-01T02:35:50.000Z</time>
      </trkpt>
      <trkpt lat="44.36014" lon="2.84795">
        <ele>667.6</ele>
        <time>2000-01-01T02:36:00.000Z</time>
      </trkpt>
      <trkpt lat="44.36006" lon="2.84791">
        <ele>669</ele>
        <time>2000-01-01T02:36:10.000Z</time>
      </trkpt>
      <trkpt lat="44.36" lon="2.84786">
        <ele>672.8</ele>
        <time>2000-01-01T02:36:20.000Z</time>
      </trkpt>
      <trkpt lat="44.35993" lon="2.84781">
        <ele>672.8</ele>
        <time>2000-01-01T02:36:30.000Z</time>
      </trkpt>
      <trkpt lat="44.35988" lon="2.84776">
        <ele>670</ele>
        <time>2000-01-01T02:36:40.000Z</time>
      </trkpt>
      <trkpt lat="44.35983" lon="2.84772">
        <ele>672.8</ele>
        <time>2000-01-01T02:36:50.000Z</time>
      </trkpt>
      <trkpt lat="44.35979" lon="2.8477">
        <ele>673</ele>
        <time>2000-01-01T02:37:00.000Z</time>
      </trkpt>
      <trkpt lat="44.3597" lon="2.84767">
        <ele>672</ele>
        <time>2000-01-01T02:37:10.000Z</time>
      </trkpt>
      <trkpt lat="44.35957" lon="2.84763">
        <ele>674.5</ele>
        <time>2000-01-01T02:37:20.000Z</time>
      </trkpt>
      <trkpt lat="44.35951" lon="2.84762">
        <ele>673</ele>
        <time>2000-01-01T02:37:30.000Z</time>
      </trkpt>
      <trkpt lat="44.35946" lon="2.84764">
        <ele>675.3</ele>
        <time>2000-01-01T02:37:40.000Z</time>
      </trkpt>
      <trkpt lat="44.35941" lon="2.84767">
        <ele>675.6</ele>
        <time>2000-01-01T02:37:50.000Z</time>
      </trkpt>
      <trkpt lat="44.35935" lon="2.84771">
        <ele>675.9</ele>
        <time>2000-01-01T02:38:00.000Z</time>
      </trkpt>
      <trkpt lat="44.35927" lon="2.84779">
        <ele>677</ele>
        <time>2000-01-01T02:38:10.000Z</time>
      </trkpt>
      <trkpt lat="44.3592" lon="2.84787">
        <ele>676.4</ele>
        <time>2000-01-01T02:38:20.000Z</time>
      </trkpt>
      <trkpt lat="44.3591" lon="2.84795">
        <ele>681</ele>
        <time>2000-01-01T02:38:30.000Z</time>
      </trkpt>
      <trkpt lat="44.359" lon="2.84804">
        <ele>684.2</ele>
        <time>2000-01-01T02:38:40.000Z</time>
      </trkpt>
      <trkpt lat="44.35893" lon="2.84813">
        <ele>682</ele>
        <time>2000-01-01T02:38:50.000Z</time>
      </trkpt>
      <trkpt lat="44.35889" lon="2.84818">
        <ele>684.9</ele>
        <time>2000-01-01T02:39:00.000Z</time>
      </trkpt>
      <trkpt lat="44.35884" lon="2.84824">
        <ele>685.4</ele>
        <time>2000-01-01T02:39:10.000Z</time>
      </trkpt>
      <trkpt lat="44.35879" lon="2.84827">
        <ele>685.9</ele>
        <time>2000-01-01T02:39:20.000Z</time>
      </trkpt>
      <trkpt lat="44.35873" lon="2.84828">
        <ele>685</ele>
        <time>2000-01-01T02:39:30.000Z</time>
      </trkpt>
      <trkpt lat="44.35866" lon="2.84827">
        <ele>687.4</ele>
        <time>2000-01-01T02:39:40.000Z</time>
      </trkpt>
      <trkpt lat="44.35856" lon="2.84824">
        <ele>688.6</ele>
        <time>2000-01-01T02:39:50.000Z</time>
      </trkpt>
      <trkpt lat="44.35849" lon="2.84821">
        <ele>689.4</ele>
        <time>2000-01-01T02:40:00.000Z</time>
      </trkpt>
      <trkpt lat="44.35849" lon="2.84821">
        <ele>689</ele>
        <time>2000-01-01T02:40:10.000Z</time>
      </trkpt>
      <trkpt lat="44.35845" lon="2.84818">
        <ele>689.6</ele>
        <time>2000-01-01T02:40:20.000Z</time>
      </trkpt>
      <trkpt lat="44.35839" lon="2.84813">
        <ele>689.5</ele>
        <time>2000-01-01T02:40:30.000Z</time>
      </trkpt>
      <trkpt lat="44.35838" lon="2.84815">
        <ele>689.8</ele>
        <time>2000-01-01T02:40:40.000Z</time>
      </trkpt>
      <trkpt lat="44.35834" lon="2.84817">
        <ele>690.3</ele>
        <time>2000-01-01T02:40:50.000Z</time>
      </trkpt>
      <trkpt lat="44.35829" lon="2.84819">
        <ele>692</ele>
        <time>2000-01-01T02:41:00.000Z</time>
      </trkpt>
      <trkpt lat="44.35824" lon="2.84818">
        <ele>697.1</ele>
        <time>2000-01-01T02:41:10.000Z</time>
      </trkpt>
      <trkpt lat="44.35817" lon="2.84814">
        <ele>698</ele>
        <time>2000-01-01T02:41:20.000Z</time>
      </trkpt>
      <trkpt lat="44.35805" lon="2.84803">
        <ele>699.2</ele>
        <time>2000-01-01T02:41:30.000Z</time>
      </trkpt>
      <trkpt lat="44.35802" lon="2.84799">
        <ele>699</ele>
        <time>2000-01-01T02:41:40.000Z</time>
      </trkpt>
      <trkpt lat="44.35802" lon="2.84799">
        <ele>699</ele>
        <time>2000-01-01T02:41:50.000Z</time>
      </trkpt>
      <trkpt lat="44.35805" lon="2.84803">
        <ele>699</ele>
        <time>2000-01-01T02:42:00.000Z</time>
      </trkpt>
      <trkpt lat="44.35796" lon="2.84803">
        <ele>700.1</ele>
        <time>2000-01-01T02:42:10.000Z</time>
      </trkpt>
      <trkpt lat="44.35789" lon="2.84804">
        <ele>698</ele>
        <time>2000-01-01T02:42:20.000Z</time>
      </trkpt>
      <trkpt lat="44.35784" lon="2.84805">
        <ele>701.6</ele>
        <time>2000-01-01T02:42:30.000Z</time>
      </trkpt>
      <trkpt lat="44.35776" lon="2.84809">
        <ele>702.7</ele>
        <time>2000-01-01T02:42:40.000Z</time>
      </trkpt>
      <trkpt lat="44.35774" lon="2.8481">
        <ele>703.1</ele>
        <time>2000-01-01T02:42:50.000Z</time>
      </trkpt>
      <trkpt lat="44.35765" lon="2.84816">
        <ele>701</ele>
        <time>2000-01-01T02:43:00.000Z</time>
      </trkpt>
      <trkpt lat="44.35751" lon="2.84827">
        <ele>709.3</ele>
        <time>2000-01-01T02:43:10.000Z</time>
      </trkpt>
      <trkpt lat="44.35742" lon="2.84834">
        <ele>714.9</ele>
        <time>2000-01-01T02:43:20.000Z</time>
      </trkpt>
      <trkpt lat="44.35742" lon="2.84834">
        <ele>715</ele>
        <time>2000-01-01T02:43:30.000Z</time>
      </trkpt>
      <trkpt lat="44.35737" lon="2.84837">
        <ele>716.4</ele>
        <time>2000-01-01T02:43:40.000Z</time>
      </trkpt>
      <trkpt lat="44.35733" lon="2.84841">
        <ele>717.5</ele>
        <time>2000-01-01T02:43:50.000Z</time>
      </trkpt>
      <trkpt lat="44.35731" lon="2.84845">
        <ele>718.2</ele>
        <time>2000-01-01T02:44:00.000Z</time>
      </trkpt>
      <trkpt lat="44.35728" lon="2.84851">
        <ele>719.2</ele>
        <time>2000-01-01T02:44:10.000Z</time>
      </trkpt>
      <trkpt lat="44.35726" lon="2.84858">
        <ele>711</ele>
        <time>2000-01-01T02:44:20.000Z</time>
      </trkpt>
      <trkpt lat="44.35724" lon="2.84864">
        <ele>720.7</ele>
        <time>2000-01-01T02:44:30.000Z</time>
      </trkpt>
      <trkpt lat="44.35722" lon="2.84873">
        <ele>721.6</ele>
        <time>2000-01-01T02:44:40.000Z</time>
      </trkpt>
      <trkpt lat="44.35718" lon="2.8488">
        <ele>722.2</ele>
        <time>2000-01-01T02:44:50.000Z</time>
      </trkpt>
      <trkpt lat="44.35715" lon="2.84885">
        <ele>716</ele>
        <time>2000-01-01T02:45:00.000Z</time>
      </trkpt>
      <trkpt lat="44.35713" lon="2.8489">
        <ele>723.1</ele>
        <time>2000-01-01T02:45:10.000Z</time>
      </trkpt>
      <trkpt lat="44.35712" lon="2.84896">
        <ele>723.4</ele>
        <time>2000-01-01T02:45:20.000Z</time>
      </trkpt>
      <trkpt lat="44.35711" lon="2.84905">
        <ele>723.9</ele>
        <time>2000-01-01T02:45:30.000Z</time>
      </trkpt>
      <trkpt lat="44.35711" lon="2.84906">
        <ele>723.9</ele>
        <time>2000-01-01T02:45:40.000Z</time>
      </trkpt>
      <trkpt lat="44.3571" lon="2.8492">
        <ele>720</ele>
        <time>2000-01-01T02:45:50.000Z</time>
      </trkpt>
      <trkpt lat="44.35709" lon="2.84931">
        <ele>729.7</ele>
        <time>2000-01-01T02:46:00.000Z</time>
      </trkpt>
      <trkpt lat="44.35707" lon="2.84946">
        <ele>730.4</ele>
        <time>2000-01-01T02:46:10.000Z</time>
      </trkpt>
      <trkpt lat="44.35705" lon="2.84955">
        <ele>727</ele>
        <time>2000-01-01T02:46:20.000Z</time>
      </trkpt>
      <trkpt lat="44.35702" lon="2.84962">
        <ele>731.2</ele>
        <time>2000-01-01T02:46:30.000Z</time>
      </trkpt>
      <trkpt lat="44.357" lon="2.84969">
        <ele>731.6</ele>
        <time>2000-01-01T02:46:40.000Z</time>
      </trkpt>
      <trkpt lat="44.35698" lon="2.84972">
        <ele>731.9</ele>
        <time>2000-01-01T02:46:50.000Z</time>
      </trkpt>
      <trkpt lat="44.35697" lon="2.84974">
        <ele>732</ele>
        <time>2000-01-01T02:47:00.000Z</time>
      </trkpt>
      <trkpt lat="44.35693" lon="2.84978">
        <ele>729</ele>
        <time>2000-01-01T02:47:10.000Z</time>
      </trkpt>
      <trkpt lat="44.35691" lon="2.84978">
        <ele>732.6</ele>
        <time>2000-01-01T02:47:20.000Z</time>
      </trkpt>
      <trkpt lat="44.3569" lon="2.84982">
        <ele>732.9</ele>
        <time>2000-01-01T02:47:30.000Z</time>
      </trkpt>
      <trkpt lat="44.35688" lon="2.84991">
        <ele>733.6</ele>
        <time>2000-01-01T02:47:40.000Z</time>
      </trkpt>
      <trkpt lat="44.35687" lon="2.84992">
        <ele>733.8</ele>
        <time>2000-01-01T02:47:50.000Z</time>
      </trkpt>
      <trkpt lat="44.35683" lon="2.85003">
        <ele>732</ele>
        <time>2000-01-01T02:48:00.000Z</time>
      </trkpt>
      <trkpt lat="44.35679" lon="2.85016">
        <ele>735.3</ele>
        <time>2000-01-01T02:48:10.000Z</time>
      </trkpt>
      <trkpt lat="44.35666" lon="2.85015">
        <ele>735</ele>
        <time>2000-01-01T02:48:20.000Z</time>
      </trkpt>
      <trkpt lat="44.35651" lon="2.85016">
        <ele>744.8</ele>
        <time>2000-01-01T02:48:30.000Z</time>
      </trkpt>
      <trkpt lat="44.35636" lon="2.85013">
        <ele>742</ele>
        <time>2000-01-01T02:48:40.000Z</time>
      </trkpt>
      <trkpt lat="44.35618" lon="2.84994">
        <ele>745</ele>
        <time>2000-01-01T02:48:50.000Z</time>
      </trkpt>
      <trkpt lat="44.35595" lon="2.84966">
        <ele>748</ele>
        <time>2000-01-01T02:49:00.000Z</time>
      </trkpt>
      <trkpt lat="44.35577" lon="2.84949">
        <ele>753</ele>
        <time>2000-01-01T02:49:10.000Z</time>
      </trkpt>
      <trkpt lat="44.35567" lon="2.84933">
        <ele>772.8</ele>
        <time>2000-01-01T02:49:20.000Z</time>
      </trkpt>
      <trkpt lat="44.35555" lon="2.84922">
        <ele>763</ele>
        <time>2000-01-01T02:49:30.000Z</time>
      </trkpt>
      <trkpt lat="44.35543" lon="2.84898">
        <ele>770</ele>
        <time>2000-01-01T02:49:40.000Z</time>
      </trkpt>
      <trkpt lat="44.35533" lon="2.84878">
        <ele>779.9</ele>
        <time>2000-01-01T02:49:50.000Z</time>
      </trkpt>
      <trkpt lat="44.35527" lon="2.84862">
        <ele>772</ele>
        <time>2000-01-01T02:50:00.000Z</time>
      </trkpt>
      <trkpt lat="44.35525" lon="2.84852">
        <ele>782</ele>
        <time>2000-01-01T02:50:10.000Z</time>
      </trkpt>
      <trkpt lat="44.35524" lon="2.84827">
        <ele>774</ele>
        <time>2000-01-01T02:50:20.000Z</time>
      </trkpt>
      <trkpt lat="44.35522" lon="2.84811">
        <ele>778.4</ele>
        <time>2000-01-01T02:50:30.000Z</time>
      </trkpt>
      <trkpt lat="44.35518" lon="2.84797">
        <ele>774</ele>
        <time>2000-01-01T02:50:40.000Z</time>
      </trkpt>
      <trkpt lat="44.35513" lon="2.84783">
        <ele>777.2</ele>
        <time>2000-01-01T02:50:50.000Z</time>
      </trkpt>
      <trkpt lat="44.35507" lon="2.84775">
        <ele>774</ele>
        <time>2000-01-01T02:51:00.000Z</time>
      </trkpt>
      <trkpt lat="44.35491" lon="2.84769">
        <ele>789.9</ele>
        <time>2000-01-01T02:51:10.000Z</time>
      </trkpt>
      <trkpt lat="44.3548" lon="2.8477">
        <ele>779</ele>
        <time>2000-01-01T02:51:20.000Z</time>
      </trkpt>
      <trkpt lat="44.35474" lon="2.84778">
        <ele>792.5</ele>
        <time>2000-01-01T02:51:30.000Z</time>
      </trkpt>
      <trkpt lat="44.35474" lon="2.84785">
        <ele>793.2</ele>
        <time>2000-01-01T02:51:40.000Z</time>
      </trkpt>
      <trkpt lat="44.35479" lon="2.84814">
        <ele>787</ele>
        <time>2000-01-01T02:51:50.000Z</time>
      </trkpt>
      <trkpt lat="44.3548" lon="2.8484">
        <ele>802.3</ele>
        <time>2000-01-01T02:52:00.000Z</time>
      </trkpt>
      <trkpt lat="44.35481" lon="2.84864">
        <ele>793</ele>
        <time>2000-01-01T02:52:10.000Z</time>
      </trkpt>
      <trkpt lat="44.35481" lon="2.84898">
        <ele>797</ele>
        <time>2000-01-01T02:52:20.000Z</time>
      </trkpt>
      <trkpt lat="44.35477" lon="2.84918">
        <ele>810.3</ele>
        <time>2000-01-01T02:52:30.000Z</time>
      </trkpt>
      <trkpt lat="44.35471" lon="2.84949">
        <ele>804</ele>
        <time>2000-01-01T02:52:40.000Z</time>
      </trkpt>
      <trkpt lat="44.35464" lon="2.84972">
        <ele>815.3</ele>
        <time>2000-01-01T02:52:50.000Z</time>
      </trkpt>
      <trkpt lat="44.3545" lon="2.85004">
        <ele>814</ele>
        <time>2000-01-01T02:53:00.000Z</time>
      </trkpt>
      <trkpt lat="44.35444" lon="2.8503">
        <ele>821.4</ele>
        <time>2000-01-01T02:53:10.000Z</time>
      </trkpt>
      <trkpt lat="44.35435" lon="2.8505">
        <ele>819</ele>
        <time>2000-01-01T02:53:20.000Z</time>
      </trkpt>
      <trkpt lat="44.35424" lon="2.85071">
        <ele>827.9</ele>
        <time>2000-01-01T02:53:30.000Z</time>
      </trkpt>
      <trkpt lat="44.35411" lon="2.85098">
        <ele>826</ele>
        <time>2000-01-01T02:53:40.000Z</time>
      </trkpt>
      <trkpt lat="44.35401" lon="2.85122">
        <ele>829</ele>
        <time>2000-01-01T02:53:50.000Z</time>
      </trkpt>
      <trkpt lat="44.3539" lon="2.85146">
        <ele>833</ele>
        <time>2000-01-01T02:54:00.000Z</time>
      </trkpt>
      <trkpt lat="44.35384" lon="2.85163">
        <ele>843.1</ele>
        <time>2000-01-01T02:54:10.000Z</time>
      </trkpt>
      <trkpt lat="44.35376" lon="2.85177">
        <ele>837</ele>
        <time>2000-01-01T02:54:20.000Z</time>
      </trkpt>
      <trkpt lat="44.35365" lon="2.85193">
        <ele>843.8</ele>
        <time>2000-01-01T02:54:30.000Z</time>
      </trkpt>
      <trkpt lat="44.35353" lon="2.85215">
        <ele>842</ele>
        <time>2000-01-01T02:54:40.000Z</time>
      </trkpt>
      <trkpt lat="44.35332" lon="2.85245">
        <ele>847</ele>
        <time>2000-01-01T02:54:50.000Z</time>
      </trkpt>
      <trkpt lat="44.35323" lon="2.85254">
        <ele>850.3</ele>
        <time>2000-01-01T02:55:00.000Z</time>
      </trkpt>
      <trkpt lat="44.35315" lon="2.85259">
        <ele>849</ele>
        <time>2000-01-01T02:55:10.000Z</time>
      </trkpt>
      <trkpt lat="44.35308" lon="2.85252">
        <ele>850.4</ele>
        <time>2000-01-01T02:55:20.000Z</time>
      </trkpt>
      <trkpt lat="44.35282" lon="2.85224">
        <ele>855</ele>
        <time>2000-01-01T02:55:30.000Z</time>
      </trkpt>
      <trkpt lat="44.35286" lon="2.85218">
        <ele>860.9</ele>
        <time>2000-01-01T02:55:40.000Z</time>
      </trkpt>
      <trkpt lat="44.35256" lon="2.85185">
        <ele>860</ele>
        <time>2000-01-01T02:55:50.000Z</time>
      </trkpt>
      <trkpt lat="44.35233" lon="2.85168">
        <ele>862</ele>
        <time>2000-01-01T02:56:00.000Z</time>
      </trkpt>
      <trkpt lat="44.35206" lon="2.85148">
        <ele>864</ele>
        <time>2000-01-01T02:56:10.000Z</time>
      </trkpt>
      <trkpt lat="44.35198" lon="2.85142">
        <ele>875.7</ele>
        <time>2000-01-01T02:56:20.000Z</time>
      </trkpt>
      <trkpt lat="44.35168" lon="2.85114">
        <ele>867</ele>
        <time>2000-01-01T02:56:30.000Z</time>
      </trkpt>
      <trkpt lat="44.3516" lon="2.85107">
        <ele>884.3</ele>
        <time>2000-01-01T02:56:40.000Z</time>
      </trkpt>
      <trkpt lat="44.35152" lon="2.85097">
        <ele>868</ele>
        <time>2000-01-01T02:56:50.000Z</time>
      </trkpt>
      <trkpt lat="44.35134" lon="2.85083">
        <ele>873</ele>
        <time>2000-01-01T02:57:00.000Z</time>
      </trkpt>
      <trkpt lat="44.35127" lon="2.85075">
        <ele>887.7</ele>
        <time>2000-01-01T02:57:10.000Z</time>
      </trkpt>
      <trkpt lat="44.35115" lon="2.85057">
        <ele>878</ele>
        <time>2000-01-01T02:57:20.000Z</time>
      </trkpt>
      <trkpt lat="44.35099" lon="2.85036">
        <ele>882</ele>
        <time>2000-01-01T02:57:30.000Z</time>
      </trkpt>
      <trkpt lat="44.35085" lon="2.85015">
        <ele>883</ele>
        <time>2000-01-01T02:57:40.000Z</time>
      </trkpt>
      <trkpt lat="44.35072" lon="2.84994">
        <ele>885</ele>
        <time>2000-01-01T02:57:50.000Z</time>
      </trkpt>
      <trkpt lat="44.3506" lon="2.84972">
        <ele>889</ele>
        <time>2000-01-01T02:58:00.000Z</time>
      </trkpt>
    </trkseg>
  </trk>
</gpx>